sensor_id;sensor_type;location;lat;lon;timestamp;temperature;humidity
68098;DHT22;54886;47.036;15.466;2022-10-15T00:00:06;11.90;80.88
68098;DHT22;54886;47.036;15.466;2022-10-15T00:02:31;11.87;80.50
68098;DHT22;54886;47.036;15.466;2022-10-15T00:04:57;11.89;80.27
68098;DHT22;54886;47.036;15.466;2022-10-15T00:07:23;11.90;79.78
68098;DHT22;54886;47.036;15.466;2022-10-15T00:09:49;11.85;79.64
68098;DHT22;54886;47.036;15.466;2022-10-15T00:12:14;11.85;79.82
68098;DHT22;54886;47.036;15.466;2022-10-15T00:14:39;11.83;80.36
68098;DHT22;54886;47.036;15.466;2022-10-15T00:17:05;11.80;81.05
68098;DHT22;54886;47.036;15.466;2022-10-15T00:19:30;11.79;80.22
68098;DHT22;54886;47.036;15.466;2022-10-15T00:21:56;11.77;79.91
68098;DHT22;54886;47.036;15.466;2022-10-15T00:24:21;11.76;79.87
68098;DHT22;54886;47.036;15.466;2022-10-15T00:26:46;11.75;80.14
68098;DHT22;54886;47.036;15.466;2022-10-15T00:29:12;11.73;79.91
68098;DHT22;54886;47.036;15.466;2022-10-15T00:31:37;11.75;79.54
68098;DHT22;54886;47.036;15.466;2022-10-15T00:34:03;11.69;79.74
68098;DHT22;54886;47.036;15.466;2022-10-15T00:36:33;11.65;79.66
68098;DHT22;54886;47.036;15.466;2022-10-15T00:38:59;11.65;79.91
68098;DHT22;54886;47.036;15.466;2022-10-15T00:41:29;11.62;79.58
68098;DHT22;54886;47.036;15.466;2022-10-15T00:46:43;11.54;79.97
68098;DHT22;54886;47.036;15.466;2022-10-15T00:51:39;11.49;79.70
68098;DHT22;54886;47.036;15.466;2022-10-15T00:54:05;11.48;79.53
68098;DHT22;54886;47.036;15.466;2022-10-15T00:56:32;11.48;80.51
68098;DHT22;54886;47.036;15.466;2022-10-15T00:58:57;11.45;79.94
68098;DHT22;54886;47.036;15.466;2022-10-15T01:01:24;11.43;80.09
68098;DHT22;54886;47.036;15.466;2022-10-15T01:03:51;11.38;80.30
68098;DHT22;54886;47.036;15.466;2022-10-15T01:06:17;11.38;79.73
68098;DHT22;54886;47.036;15.466;2022-10-15T01:08:43;11.36;80.39
68098;DHT22;54886;47.036;15.466;2022-10-15T01:17:03;11.28;80.25
68098;DHT22;54886;47.036;15.466;2022-10-15T01:22:10;11.18;80.91
68098;DHT22;54886;47.036;15.466;2022-10-15T01:30:27;11.20;80.20
68098;DHT22;54886;47.036;15.466;2022-10-15T01:33:04;11.18;80.50
68098;DHT22;54886;47.036;15.466;2022-10-15T01:39:07;11.15;80.44
68098;DHT22;54886;47.036;15.466;2022-10-15T01:41:44;11.17;80.18
68098;DHT22;54886;47.036;15.466;2022-10-15T01:44:16;11.14;79.99
68098;DHT22;54886;47.036;15.466;2022-10-15T01:47:02;11.13;80.36
68098;DHT22;54886;47.036;15.466;2022-10-15T01:49:31;11.14;80.29
68098;DHT22;54886;47.036;15.466;2022-10-15T01:51:59;11.10;80.52
68098;DHT22;54886;47.036;15.466;2022-10-15T01:54:26;11.06;81.37
68098;DHT22;54886;47.036;15.466;2022-10-15T01:56:53;11.03;81.77
68098;DHT22;54886;47.036;15.466;2022-10-15T01:59:24;11.01;81.87
68098;DHT22;54886;47.036;15.466;2022-10-15T02:01:51;11.01;81.72
68098;DHT22;54886;47.036;15.466;2022-10-15T02:04:22;11.04;81.52
68098;DHT22;54886;47.036;15.466;2022-10-15T02:07:01;11.04;81.41
68098;DHT22;54886;47.036;15.466;2022-10-15T02:12:38;10.97;82.80
68098;DHT22;54886;47.036;15.466;2022-10-15T02:15:14;10.99;81.59
68098;DHT22;54886;47.036;15.466;2022-10-15T02:21:02;10.99;81.34
68098;DHT22;54886;47.036;15.466;2022-10-15T02:26:13;11.01;81.66
68098;DHT22;54886;47.036;15.466;2022-10-15T02:28:42;10.97;83.32
68098;DHT22;54886;47.036;15.466;2022-10-15T02:31:11;10.97;81.56
68098;DHT22;54886;47.036;15.466;2022-10-15T02:33:38;10.99;82.33
68098;DHT22;54886;47.036;15.466;2022-10-15T02:36:04;10.99;82.10
68098;DHT22;54886;47.036;15.466;2022-10-15T02:38:31;11.01;82.57
68098;DHT22;54886;47.036;15.466;2022-10-15T02:40:57;11.00;81.93
68098;DHT22;54886;47.036;15.466;2022-10-15T02:43:23;11.03;82.01
68098;DHT22;54886;47.036;15.466;2022-10-15T02:45:48;10.97;83.69
68098;DHT22;54886;47.036;15.466;2022-10-15T02:48:14;11.00;82.90
68098;DHT22;54886;47.036;15.466;2022-10-15T02:50:39;10.96;82.46
68098;DHT22;54886;47.036;15.466;2022-10-15T02:53:05;10.97;84.07
68098;DHT22;54886;47.036;15.466;2022-10-15T02:55:30;10.99;83.23
68098;DHT22;54886;47.036;15.466;2022-10-15T02:57:56;10.97;82.50
68098;DHT22;54886;47.036;15.466;2022-10-15T03:00:21;11.00;82.18
68098;DHT22;54886;47.036;15.466;2022-10-15T03:02:47;11.03;83.43
68098;DHT22;54886;47.036;15.466;2022-10-15T03:05:12;11.01;83.88
68098;DHT22;54886;47.036;15.466;2022-10-15T03:07:37;11.01;84.50
68098;DHT22;54886;47.036;15.466;2022-10-15T03:10:04;11.00;83.51
68098;DHT22;54886;47.036;15.466;2022-10-15T03:12:29;11.04;84.07
68098;DHT22;54886;47.036;15.466;2022-10-15T03:14:55;11.03;82.86
68098;DHT22;54886;47.036;15.466;2022-10-15T03:17:20;11.03;82.84
68098;DHT22;54886;47.036;15.466;2022-10-15T03:19:45;11.03;82.46
68098;DHT22;54886;47.036;15.466;2022-10-15T03:22:11;11.07;82.66
68098;DHT22;54886;47.036;15.466;2022-10-15T03:24:36;11.04;83.78
68098;DHT22;54886;47.036;15.466;2022-10-15T03:27:02;11.03;83.34
68098;DHT22;54886;47.036;15.466;2022-10-15T03:29:27;11.03;83.96
68098;DHT22;54886;47.036;15.466;2022-10-15T03:31:52;11.00;83.67
68098;DHT22;54886;47.036;15.466;2022-10-15T03:34:18;11.00;83.90
68098;DHT22;54886;47.036;15.466;2022-10-15T03:36:43;11.00;83.24
68098;DHT22;54886;47.036;15.466;2022-10-15T03:39:12;11.01;82.60
68098;DHT22;54886;47.036;15.466;2022-10-15T03:41:38;11.00;83.01
68098;DHT22;54886;47.036;15.466;2022-10-15T03:44:05;10.99;83.38
68098;DHT22;54886;47.036;15.466;2022-10-15T03:46:31;10.99;83.34
68098;DHT22;54886;47.036;15.466;2022-10-15T03:48:56;10.96;83.90
68098;DHT22;54886;47.036;15.466;2022-10-15T03:51:22;10.96;84.26
68098;DHT22;54886;47.036;15.466;2022-10-15T03:53:48;10.96;83.97
68098;DHT22;54886;47.036;15.466;2022-10-15T03:56:13;10.93;84.93
68098;DHT22;54886;47.036;15.466;2022-10-15T03:58:39;10.94;84.92
68098;DHT22;54886;47.036;15.466;2022-10-15T04:01:13;10.93;84.62
68098;DHT22;54886;47.036;15.466;2022-10-15T04:03:39;10.92;85.03
68098;DHT22;54886;47.036;15.466;2022-10-15T04:06:05;10.92;85.53
68098;DHT22;54886;47.036;15.466;2022-10-15T04:08:30;10.92;84.28
68098;DHT22;54886;47.036;15.466;2022-10-15T04:10:56;10.96;83.65
68098;DHT22;54886;47.036;15.466;2022-10-15T04:13:23;10.96;84.32
68098;DHT22;54886;47.036;15.466;2022-10-15T04:15:48;10.94;84.46
68098;DHT22;54886;47.036;15.466;2022-10-15T04:18:14;10.94;84.30
68098;DHT22;54886;47.036;15.466;2022-10-15T04:20:39;10.96;83.76
68098;DHT22;54886;47.036;15.466;2022-10-15T04:23:07;10.97;83.20
68098;DHT22;54886;47.036;15.466;2022-10-15T04:25:32;10.97;83.60
68098;DHT22;54886;47.036;15.466;2022-10-15T04:27:58;10.96;84.83
68098;DHT22;54886;47.036;15.466;2022-10-15T04:30:23;10.97;84.93
68098;DHT22;54886;47.036;15.466;2022-10-15T04:32:51;10.99;83.97
68098;DHT22;54886;47.036;15.466;2022-10-15T04:35:17;10.97;84.55
68098;DHT22;54886;47.036;15.466;2022-10-15T04:37:42;10.96;85.54
68098;DHT22;54886;47.036;15.466;2022-10-15T04:40:08;10.96;86.03
68098;DHT22;54886;47.036;15.466;2022-10-15T04:42:33;10.97;85.70
68098;DHT22;54886;47.036;15.466;2022-10-15T04:44:59;10.97;85.90
68098;DHT22;54886;47.036;15.466;2022-10-15T04:47:24;10.96;85.83
68098;DHT22;54886;47.036;15.466;2022-10-15T04:49:50;11.01;84.63
68098;DHT22;54886;47.036;15.466;2022-10-15T04:52:15;10.99;85.96
68098;DHT22;54886;47.036;15.466;2022-10-15T04:54:40;10.99;85.94
68098;DHT22;54886;47.036;15.466;2022-10-15T04:57:06;11.00;83.63
68098;DHT22;54886;47.036;15.466;2022-10-15T04:59:32;11.00;84.56
68098;DHT22;54886;47.036;15.466;2022-10-15T05:01:57;11.04;83.83
68098;DHT22;54886;47.036;15.466;2022-10-15T05:04:22;11.03;83.92
68098;DHT22;54886;47.036;15.466;2022-10-15T05:06:48;11.01;84.95
68098;DHT22;54886;47.036;15.466;2022-10-15T05:09:13;11.03;85.09
68098;DHT22;54886;47.036;15.466;2022-10-15T05:11:39;11.04;85.95
68098;DHT22;54886;47.036;15.466;2022-10-15T05:14:04;11.06;86.04
68098;DHT22;54886;47.036;15.466;2022-10-15T05:16:31;11.04;86.16
68098;DHT22;54886;47.036;15.466;2022-10-15T05:18:59;11.04;86.56
68098;DHT22;54886;47.036;15.466;2022-10-15T05:21:24;11.07;86.25
68098;DHT22;54886;47.036;15.466;2022-10-15T05:23:50;11.07;86.61
68098;DHT22;54886;47.036;15.466;2022-10-15T05:26:18;11.04;86.20
68098;DHT22;54886;47.036;15.466;2022-10-15T05:28:44;11.07;86.26
68098;DHT22;54886;47.036;15.466;2022-10-15T05:31:12;11.08;85.54
68098;DHT22;54886;47.036;15.466;2022-10-15T05:33:38;11.08;86.06
68098;DHT22;54886;47.036;15.466;2022-10-15T05:36:24;11.08;86.62
68098;DHT22;54886;47.036;15.466;2022-10-15T05:39:00;11.10;84.36
68098;DHT22;54886;47.036;15.466;2022-10-15T05:41:27;11.11;84.80
68098;DHT22;54886;47.036;15.466;2022-10-15T05:43:54;11.13;86.14
68098;DHT22;54886;47.036;15.466;2022-10-15T05:46:21;11.15;84.51
68098;DHT22;54886;47.036;15.466;2022-10-15T05:48:50;11.14;85.45
68098;DHT22;54886;47.036;15.466;2022-10-15T05:51:16;11.15;86.83
68098;DHT22;54886;47.036;15.466;2022-10-15T05:53:42;11.18;86.87
68098;DHT22;54886;47.036;15.466;2022-10-15T05:56:08;11.20;86.49
68098;DHT22;54886;47.036;15.466;2022-10-15T05:58:35;11.21;86.60
68098;DHT22;54886;47.036;15.466;2022-10-15T06:01:02;11.21;86.15
68098;DHT22;54886;47.036;15.466;2022-10-15T06:03:29;11.23;86.14
68098;DHT22;54886;47.036;15.466;2022-10-15T06:05:54;11.20;85.05
68098;DHT22;54886;47.036;15.466;2022-10-15T06:08:20;11.23;86.24
68098;DHT22;54886;47.036;15.466;2022-10-15T06:10:47;11.24;86.97
68098;DHT22;54886;47.036;15.466;2022-10-15T06:13:13;11.27;86.53
68098;DHT22;54886;47.036;15.466;2022-10-15T06:15:40;11.28;85.61
68098;DHT22;54886;47.036;15.466;2022-10-15T06:18:06;11.27;86.79
68098;DHT22;54886;47.036;15.466;2022-10-15T06:20:31;11.28;85.93
68098;DHT22;54886;47.036;15.466;2022-10-15T06:23:00;11.31;86.03
68098;DHT22;54886;47.036;15.466;2022-10-15T06:25:26;11.34;87.31
68098;DHT22;54886;47.036;15.466;2022-10-15T06:27:53;11.34;87.65
68098;DHT22;54886;47.036;15.466;2022-10-15T06:30:19;11.35;86.65
68098;DHT22;54886;47.036;15.466;2022-10-15T06:32:51;11.38;85.86
68098;DHT22;54886;47.036;15.466;2022-10-15T06:35:19;11.41;87.54
68098;DHT22;54886;47.036;15.466;2022-10-15T06:37:44;11.45;86.88
68098;DHT22;54886;47.036;15.466;2022-10-15T06:40:11;11.42;86.48
68098;DHT22;54886;47.036;15.466;2022-10-15T06:42:36;11.43;86.16
68098;DHT22;54886;47.036;15.466;2022-10-15T06:45:03;11.45;87.00
68098;DHT22;54886;47.036;15.466;2022-10-15T06:47:29;11.45;87.03
68098;DHT22;54886;47.036;15.466;2022-10-15T06:49:54;11.48;86.97
68098;DHT22;54886;47.036;15.466;2022-10-15T06:52:19;11.45;86.88
68098;DHT22;54886;47.036;15.466;2022-10-15T06:54:45;11.51;87.62
68098;DHT22;54886;47.036;15.466;2022-10-15T06:57:10;11.51;88.09
68098;DHT22;54886;47.036;15.466;2022-10-15T06:59:36;11.54;88.00
68098;DHT22;54886;47.036;15.466;2022-10-15T07:02:02;11.58;88.10
68098;DHT22;54886;47.036;15.466;2022-10-15T07:04:27;11.62;87.48
68098;DHT22;54886;47.036;15.466;2022-10-15T07:06:52;11.61;87.34
68098;DHT22;54886;47.036;15.466;2022-10-15T07:09:18;11.65;87.64
68098;DHT22;54886;47.036;15.466;2022-10-15T07:11:44;11.66;87.77
68098;DHT22;54886;47.036;15.466;2022-10-15T07:14:10;11.65;88.25
68098;DHT22;54886;47.036;15.466;2022-10-15T07:16:35;11.68;87.86
68098;DHT22;54886;47.036;15.466;2022-10-15T07:19:03;11.68;86.10
68098;DHT22;54886;47.036;15.466;2022-10-15T07:21:28;11.69;84.87
68098;DHT22;54886;47.036;15.466;2022-10-15T07:23:53;11.70;86.48
68098;DHT22;54886;47.036;15.466;2022-10-15T07:26:19;11.75;87.14
68098;DHT22;54886;47.036;15.466;2022-10-15T07:28:44;11.77;87.35
68098;DHT22;54886;47.036;15.466;2022-10-15T07:31:10;11.83;87.52
68098;DHT22;54886;47.036;15.466;2022-10-15T07:33:35;11.80;86.31
68098;DHT22;54886;47.036;15.466;2022-10-15T07:36:06;11.82;86.19
68098;DHT22;54886;47.036;15.466;2022-10-15T07:38:33;11.83;87.15
68098;DHT22;54886;47.036;15.466;2022-10-15T07:40:59;11.86;87.27
68098;DHT22;54886;47.036;15.466;2022-10-15T07:43:25;11.87;87.14
68098;DHT22;54886;47.036;15.466;2022-10-15T07:45:50;11.89;85.49
68098;DHT22;54886;47.036;15.466;2022-10-15T07:48:16;11.91;86.19
68098;DHT22;54886;47.036;15.466;2022-10-15T07:50:41;11.94;87.35
68098;DHT22;54886;47.036;15.466;2022-10-15T07:53:07;11.96;86.89
68098;DHT22;54886;47.036;15.466;2022-10-15T07:55:33;11.98;87.32
68098;DHT22;54886;47.036;15.466;2022-10-15T07:57:58;12.01;87.42
68098;DHT22;54886;47.036;15.466;2022-10-15T08:00:24;12.03;87.44
68098;DHT22;54886;47.036;15.466;2022-10-15T08:02:49;12.04;87.22
68098;DHT22;54886;47.036;15.466;2022-10-15T08:05:15;12.06;87.90
68098;DHT22;54886;47.036;15.466;2022-10-15T08:07:40;12.10;88.01
68098;DHT22;54886;47.036;15.466;2022-10-15T08:10:07;12.12;88.04
68098;DHT22;54886;47.036;15.466;2022-10-15T08:12:32;12.14;87.98
68098;DHT22;54886;47.036;15.466;2022-10-15T08:14:58;12.16;87.98
68098;DHT22;54886;47.036;15.466;2022-10-15T08:17:23;12.20;87.82
68098;DHT22;54886;47.036;15.466;2022-10-15T08:19:49;12.23;87.68
68098;DHT22;54886;47.036;15.466;2022-10-15T08:22:14;12.25;87.73
68098;DHT22;54886;47.036;15.466;2022-10-15T08:24:40;12.24;87.27
68098;DHT22;54886;47.036;15.466;2022-10-15T08:27:05;12.28;87.55
68098;DHT22;54886;47.036;15.466;2022-10-15T08:29:30;12.25;88.05
68098;DHT22;54886;47.036;15.466;2022-10-15T08:31:56;12.25;87.62
68098;DHT22;54886;47.036;15.466;2022-10-15T08:34:21;12.31;87.75
68098;DHT22;54886;47.036;15.466;2022-10-15T08:36:46;12.31;87.19
68098;DHT22;54886;47.036;15.466;2022-10-15T08:39:12;12.34;87.84
68098;DHT22;54886;47.036;15.466;2022-10-15T08:41:47;12.34;87.70
68098;DHT22;54886;47.036;15.466;2022-10-15T08:44:26;12.38;87.65
68098;DHT22;54886;47.036;15.466;2022-10-15T08:46:57;12.40;87.57
68098;DHT22;54886;47.036;15.466;2022-10-15T08:49:36;12.40;87.34
68098;DHT22;54886;47.036;15.466;2022-10-15T08:52:11;12.41;86.56
68098;DHT22;54886;47.036;15.466;2022-10-15T08:54:40;12.42;86.64
68098;DHT22;54886;47.036;15.466;2022-10-15T08:57:14;12.44;86.44
68098;DHT22;54886;47.036;15.466;2022-10-15T08:59:49;12.48;87.20
68098;DHT22;54886;47.036;15.466;2022-10-15T09:02:34;12.48;87.50
68098;DHT22;54886;47.036;15.466;2022-10-15T09:05:26;12.52;87.48
68098;DHT22;54886;47.036;15.466;2022-10-15T09:08:07;12.53;87.34
68098;DHT22;54886;47.036;15.466;2022-10-15T09:15:37;12.65;88.40
68098;DHT22;54886;47.036;15.466;2022-10-15T09:18:04;12.66;87.30
68098;DHT22;54886;47.036;15.466;2022-10-15T09:20:34;12.72;88.25
68098;DHT22;54886;47.036;15.466;2022-10-15T09:23:01;12.76;88.23
68098;DHT22;54886;47.036;15.466;2022-10-15T09:25:34;12.76;88.24
68098;DHT22;54886;47.036;15.466;2022-10-15T09:28:08;12.80;88.15
68098;DHT22;54886;47.036;15.466;2022-10-15T09:30:52;12.83;87.36
68098;DHT22;54886;47.036;15.466;2022-10-15T09:33:47;12.89;86.94
68098;DHT22;54886;47.036;15.466;2022-10-15T09:42:16;12.97;87.61
68098;DHT22;54886;47.036;15.466;2022-10-15T09:44:46;13.02;87.30
68098;DHT22;54886;47.036;15.466;2022-10-15T09:47:27;13.06;86.72
68098;DHT22;54886;47.036;15.466;2022-10-15T09:49:53;13.07;87.91
68098;DHT22;54886;47.036;15.466;2022-10-15T09:57:37;13.23;87.30
68098;DHT22;54886;47.036;15.466;2022-10-15T10:00:08;13.28;87.14
68098;DHT22;54886;47.036;15.466;2022-10-15T10:02:34;13.32;87.20
68098;DHT22;54886;47.036;15.466;2022-10-15T10:07:44;13.38;86.78
68098;DHT22;54886;47.036;15.466;2022-10-15T10:10:26;13.45;87.19
68098;DHT22;54886;47.036;15.466;2022-10-15T10:12:54;13.48;87.17
68098;DHT22;54886;47.036;15.466;2022-10-15T10:17:53;13.58;86.68
68098;DHT22;54886;47.036;15.466;2022-10-15T10:20:23;13.62;86.69
68098;DHT22;54886;47.036;15.466;2022-10-15T10:22:58;13.66;86.70
68098;DHT22;54886;47.036;15.466;2022-10-15T10:25:39;13.66;86.18
68098;DHT22;54886;47.036;15.466;2022-10-15T10:30:41;13.68;85.58
68098;DHT22;54886;47.036;15.466;2022-10-15T10:33:12;13.70;85.51
68098;DHT22;54886;47.036;15.466;2022-10-15T10:35:47;13.76;85.67
68098;DHT22;54886;47.036;15.466;2022-10-15T10:38:22;13.79;85.80
68098;DHT22;54886;47.036;15.466;2022-10-15T10:40:54;13.86;86.26
68098;DHT22;54886;47.036;15.466;2022-10-15T10:43:27;13.89;85.66
68098;DHT22;54886;47.036;15.466;2022-10-15T10:46:05;13.93;85.67
68098;DHT22;54886;47.036;15.466;2022-10-15T10:48:45;13.95;85.68
68098;DHT22;54886;47.036;15.466;2022-10-15T10:51:15;13.97;85.06
68098;DHT22;54886;47.036;15.466;2022-10-15T10:54:01;14.00;84.98
68098;DHT22;54886;47.036;15.466;2022-10-15T10:59:12;14.12;85.00
68098;DHT22;54886;47.036;15.466;2022-10-15T11:01:39;14.16;84.97
68098;DHT22;54886;47.036;15.466;2022-10-15T11:04:11;14.24;85.22
68098;DHT22;54886;47.036;15.466;2022-10-15T11:07:05;14.30;85.16
68098;DHT22;54886;47.036;15.466;2022-10-15T11:09:57;14.32;84.63
68098;DHT22;54886;47.036;15.466;2022-10-15T11:20:02;14.41;83.96
68098;DHT22;54886;47.036;15.466;2022-10-15T11:28:28;14.52;84.50
68098;DHT22;54886;47.036;15.466;2022-10-15T11:31:12;14.57;84.55
68098;DHT22;54886;47.036;15.466;2022-10-15T11:33:43;14.58;84.09
68098;DHT22;54886;47.036;15.466;2022-10-15T11:42:14;14.62;82.83
68098;DHT22;54886;47.036;15.466;2022-10-15T11:45:26;14.61;82.91
68098;DHT22;54886;47.036;15.466;2022-10-15T11:47:57;14.59;82.63
68098;DHT22;54886;47.036;15.466;2022-10-15T11:50:44;14.64;83.35
68098;DHT22;54886;47.036;15.466;2022-10-15T11:56:21;14.69;83.72
68098;DHT22;54886;47.036;15.466;2022-10-15T11:58:55;14.72;83.57
68098;DHT22;54886;47.036;15.466;2022-10-15T12:01:32;14.69;83.00
68098;DHT22;54886;47.036;15.466;2022-10-15T12:04:10;14.75;83.12
68098;DHT22;54886;47.036;15.466;2022-10-15T12:06:40;14.75;82.96
68098;DHT22;54886;47.036;15.466;2022-10-15T12:09:13;14.78;82.66
68098;DHT22;54886;47.036;15.466;2022-10-15T12:14:59;14.80;82.86
68098;DHT22;54886;47.036;15.466;2022-10-15T12:17:47;14.80;82.63
68098;DHT22;54886;47.036;15.466;2022-10-15T12:20:17;14.83;83.22
68098;DHT22;54886;47.036;15.466;2022-10-15T12:30:33;14.86;82.18
68098;DHT22;54886;47.036;15.466;2022-10-15T12:33:03;14.92;82.13
68098;DHT22;54886;47.036;15.466;2022-10-15T12:35:38;14.89;82.07
68098;DHT22;54886;47.036;15.466;2022-10-15T12:38:30;14.92;82.14
68098;DHT22;54886;47.036;15.466;2022-10-15T12:41:03;14.93;82.17
68098;DHT22;54886;47.036;15.466;2022-10-15T12:43:31;14.96;82.33
68098;DHT22;54886;47.036;15.466;2022-10-15T12:46:00;14.93;81.99
68098;DHT22;54886;47.036;15.466;2022-10-15T12:48:32;14.96;82.16
68098;DHT22;54886;47.036;15.466;2022-10-15T12:53:52;15.03;82.24
68098;DHT22;54886;47.036;15.466;2022-10-15T12:56:38;15.03;82.24
68098;DHT22;54886;47.036;15.466;2022-10-15T12:59:28;15.08;82.03
68098;DHT22;54886;47.036;15.466;2022-10-15T13:01:54;15.07;81.90
68098;DHT22;54886;47.036;15.466;2022-10-15T13:04:20;15.10;82.04
68098;DHT22;54886;47.036;15.466;2022-10-15T13:06:46;15.13;82.26
68098;DHT22;54886;47.036;15.466;2022-10-15T13:16:36;15.19;81.71
68098;DHT22;54886;47.036;15.466;2022-10-15T13:19:02;15.24;81.82
68098;DHT22;54886;47.036;15.466;2022-10-15T13:21:49;15.24;81.48
68098;DHT22;54886;47.036;15.466;2022-10-15T13:24:17;15.26;81.62
68098;DHT22;54886;47.036;15.466;2022-10-15T13:26:43;15.28;81.80
68098;DHT22;54886;47.036;15.466;2022-10-15T13:29:21;15.32;81.96
68098;DHT22;54886;47.036;15.466;2022-10-15T13:31:47;15.32;81.62
68098;DHT22;54886;47.036;15.466;2022-10-15T13:36:45;15.38;81.93
68098;DHT22;54886;47.036;15.466;2022-10-15T13:42:23;15.35;81.23
68098;DHT22;54886;47.036;15.466;2022-10-15T13:47:36;15.44;81.45
68098;DHT22;54886;47.036;15.466;2022-10-15T13:55:25;15.45;80.65
68098;DHT22;54886;47.036;15.466;2022-10-15T13:57:58;15.47;80.92
68098;DHT22;54886;47.036;15.466;2022-10-15T14:00:30;15.48;81.16
68098;DHT22;54886;47.036;15.466;2022-10-15T14:03:29;15.50;81.34
68098;DHT22;54886;47.036;15.466;2022-10-15T14:05:56;15.50;81.10
68098;DHT22;54886;47.036;15.466;2022-10-15T14:08:27;15.52;81.64
68098;DHT22;54886;47.036;15.466;2022-10-15T14:10:57;15.55;81.02
68098;DHT22;54886;47.036;15.466;2022-10-15T14:13:23;15.55;81.06
68098;DHT22;54886;47.036;15.466;2022-10-15T14:16:12;15.57;81.06
68098;DHT22;54886;47.036;15.466;2022-10-15T14:18:42;15.58;81.22
68098;DHT22;54886;47.036;15.466;2022-10-15T14:21:13;15.61;80.60
68098;DHT22;54886;47.036;15.466;2022-10-15T14:23:41;15.61;80.50
68098;DHT22;54886;47.036;15.466;2022-10-15T14:26:08;15.61;80.50
68098;DHT22;54886;47.036;15.466;2022-10-15T14:28:35;15.59;80.32
68098;DHT22;54886;47.036;15.466;2022-10-15T14:31:01;15.59;80.01
68098;DHT22;54886;47.036;15.466;2022-10-15T14:33:40;15.59;79.37
68098;DHT22;54886;47.036;15.466;2022-10-15T14:38:46;15.57;79.62
68098;DHT22;54886;47.036;15.466;2022-10-15T14:41:27;15.55;79.26
68098;DHT22;54886;47.036;15.466;2022-10-15T14:46:41;15.54;79.41
68098;DHT22;54886;47.036;15.466;2022-10-15T14:51:45;15.57;79.99
68098;DHT22;54886;47.036;15.466;2022-10-15T14:54:20;15.54;79.15
68098;DHT22;54886;47.036;15.466;2022-10-15T14:56:48;15.54;80.62
68098;DHT22;54886;47.036;15.466;2022-10-15T14:59:17;15.55;80.93
68098;DHT22;54886;47.036;15.466;2022-10-15T15:02:00;15.59;80.69
68098;DHT22;54886;47.036;15.466;2022-10-15T15:04:44;15.57;80.61
68098;DHT22;54886;47.036;15.466;2022-10-15T15:07:16;15.58;80.85
68098;DHT22;54886;47.036;15.466;2022-10-15T15:09:42;15.57;81.06
68098;DHT22;54886;47.036;15.466;2022-10-15T15:12:17;15.57;81.39
68098;DHT22;54886;47.036;15.466;2022-10-15T15:14:43;15.58;81.41
68098;DHT22;54886;47.036;15.466;2022-10-15T15:17:18;15.57;81.20
68098;DHT22;54886;47.036;15.466;2022-10-15T15:19:44;15.55;81.54
68098;DHT22;54886;47.036;15.466;2022-10-15T15:22:12;15.55;81.39
68098;DHT22;54886;47.036;15.466;2022-10-15T15:24:38;15.55;81.47
68098;DHT22;54886;47.036;15.466;2022-10-15T15:27:04;15.51;81.07
68098;DHT22;54886;47.036;15.466;2022-10-15T15:29:29;15.52;80.99
68098;DHT22;54886;47.036;15.466;2022-10-15T15:31:55;15.48;81.36
68098;DHT22;54886;47.036;15.466;2022-10-15T15:34:20;15.51;81.43
68098;DHT22;54886;47.036;15.466;2022-10-15T15:36:48;15.50;81.18
68098;DHT22;54886;47.036;15.466;2022-10-15T15:39:13;15.48;81.39
68098;DHT22;54886;47.036;15.466;2022-10-15T15:41:38;15.50;81.10
68098;DHT22;54886;47.036;15.466;2022-10-15T15:44:04;15.47;81.19
68098;DHT22;54886;47.036;15.466;2022-10-15T15:46:31;15.44;81.22
68098;DHT22;54886;47.036;15.466;2022-10-15T15:48:57;15.42;81.47
68098;DHT22;54886;47.036;15.466;2022-10-15T15:51:28;15.42;81.46
68098;DHT22;54886;47.036;15.466;2022-10-15T15:53:54;15.38;81.68
68098;DHT22;54886;47.036;15.466;2022-10-15T15:56:20;15.35;81.51
68098;DHT22;54886;47.036;15.466;2022-10-15T15:58:47;15.34;81.52
68098;DHT22;54886;47.036;15.466;2022-10-15T16:01:17;15.32;81.41
68098;DHT22;54886;47.036;15.466;2022-10-15T16:03:42;15.30;81.68
68098;DHT22;54886;47.036;15.466;2022-10-15T16:06:08;15.27;81.50
68098;DHT22;54886;47.036;15.466;2022-10-15T16:08:35;15.26;81.59
68098;DHT22;54886;47.036;15.466;2022-10-15T16:11:02;15.24;81.74
68098;DHT22;54886;47.036;15.466;2022-10-15T16:13:28;15.20;81.73
68098;DHT22;54886;47.036;15.466;2022-10-15T16:15:53;15.16;81.79
68098;DHT22;54886;47.036;15.466;2022-10-15T16:18:19;15.13;81.70
68098;DHT22;54886;47.036;15.466;2022-10-15T16:20:44;15.13;81.62
68098;DHT22;54886;47.036;15.466;2022-10-15T16:23:10;15.08;81.61
68098;DHT22;54886;47.036;15.466;2022-10-15T16:25:35;15.04;81.75
68098;DHT22;54886;47.036;15.466;2022-10-15T16:28:01;15.03;81.53
68098;DHT22;54886;47.036;15.466;2022-10-15T16:30:27;15.02;81.50
68098;DHT22;54886;47.036;15.466;2022-10-15T16:32:52;14.99;81.56
68098;DHT22;54886;47.036;15.466;2022-10-15T16:35:18;14.95;81.76
68098;DHT22;54886;47.036;15.466;2022-10-15T16:37:43;14.93;81.77
68098;DHT22;54886;47.036;15.466;2022-10-15T16:40:10;14.93;81.80
68098;DHT22;54886;47.036;15.466;2022-10-15T16:42:35;14.92;81.63
68098;DHT22;54886;47.036;15.466;2022-10-15T16:45:01;14.86;81.82
68098;DHT22;54886;47.036;15.466;2022-10-15T16:47:26;14.82;81.73
68098;DHT22;54886;47.036;15.466;2022-10-15T16:49:51;14.80;81.60
68098;DHT22;54886;47.036;15.466;2022-10-15T16:52:19;14.76;81.71
68098;DHT22;54886;47.036;15.466;2022-10-15T16:54:45;14.72;81.50
68098;DHT22;54886;47.036;15.466;2022-10-15T16:57:10;14.69;81.52
68098;DHT22;54886;47.036;15.466;2022-10-15T16:59:35;14.64;81.54
68098;DHT22;54886;47.036;15.466;2022-10-15T17:02:01;14.62;81.57
68098;DHT22;54886;47.036;15.466;2022-10-15T17:04:26;14.59;81.57
68098;DHT22;54886;47.036;15.466;2022-10-15T17:06:52;14.58;81.47
68098;DHT22;54886;47.036;15.466;2022-10-15T17:09:17;14.51;81.57
68098;DHT22;54886;47.036;15.466;2022-10-15T17:11:43;14.46;81.87
68098;DHT22;54886;47.036;15.466;2022-10-15T17:14:11;14.45;81.61
68098;DHT22;54886;47.036;15.466;2022-10-15T17:16:49;14.44;81.65
68098;DHT22;54886;47.036;15.466;2022-10-15T17:19:17;14.41;81.56
68098;DHT22;54886;47.036;15.466;2022-10-15T17:21:43;14.34;81.75
68098;DHT22;54886;47.036;15.466;2022-10-15T17:24:11;14.25;81.88
68098;DHT22;54886;47.036;15.466;2022-10-15T17:26:38;14.24;81.92
68098;DHT22;54886;47.036;15.466;2022-10-15T17:29:05;14.21;81.96